createdAt,value
2022-08-12T00:00:17.728Z,16.00
2022-08-12T00:02:45.116Z,15.90
2022-08-12T00:05:15.655Z,16.00
2022-08-12T00:07:43.008Z,16.00
2022-08-12T00:14:20.140Z,15.90
2022-08-12T00:21:03.589Z,15.80
2022-08-12T00:27:43.633Z,15.70
2022-08-12T00:34:34.334Z,15.60
2022-08-12T00:37:07.263Z,15.60
2022-08-12T00:39:42.936Z,15.60
2022-08-12T00:42:10.419Z,15.60
2022-08-12T00:44:44.252Z,15.60
2022-08-12T00:47:24.940Z,15.70
2022-08-12T00:49:55.233Z,15.80
2022-08-12T00:52:23.826Z,15.70
2022-08-12T00:55:01.084Z,15.70
2022-08-12T00:57:33.766Z,15.60
2022-08-12T01:00:22.958Z,15.60
2022-08-12T01:02:55.774Z,15.60
2022-08-12T01:05:25.681Z,15.60
2022-08-12T01:07:53.976Z,15.60
2022-08-12T01:10:32.796Z,15.60
2022-08-12T01:13:07.730Z,15.70
2022-08-12T01:15:50.828Z,15.70
2022-08-12T01:18:23.162Z,15.80
2022-08-12T01:21:26.942Z,15.80
2022-08-12T01:24:43.810Z,15.80
2022-08-12T01:27:13.952Z,15.80
2022-08-12T01:29:46.003Z,15.80
2022-08-12T01:32:15.701Z,15.70
2022-08-12T01:35:06.373Z,15.80
2022-08-12T01:37:59.595Z,15.70
2022-08-12T01:40:37.912Z,15.70
2022-08-12T01:43:16.388Z,15.70
2022-08-12T01:46:09.240Z,15.90
2022-08-12T01:49:40.450Z,15.80
2022-08-12T02:05:04.271Z,15.80
2022-08-12T02:07:52.744Z,15.80
2022-08-12T02:10:50.442Z,15.90
2022-08-12T02:14:05.881Z,15.80
2022-08-12T02:17:06.030Z,15.60
2022-08-12T02:20:13.122Z,15.80
2022-08-12T02:22:45.184Z,15.70
2022-08-12T02:25:29.506Z,15.60
2022-08-12T02:27:57.044Z,15.80
2022-08-12T02:30:35.371Z,15.80
2022-08-12T02:33:11.722Z,15.70
2022-08-12T02:35:39.891Z,15.70
2022-08-12T02:38:10.611Z,15.60
2022-08-12T02:40:41.739Z,15.60
2022-08-12T02:43:47.297Z,15.70
2022-08-12T02:46:20.947Z,15.60
2022-08-12T02:49:05.131Z,15.50
2022-08-12T02:51:43.862Z,15.50
2022-08-12T02:54:12.230Z,15.50
2022-08-12T02:56:50.392Z,15.30
2022-08-12T02:59:24.528Z,15.20
2022-08-12T03:01:56.382Z,15.10
2022-08-12T03:04:43.813Z,15.10
2022-08-12T03:07:49.328Z,15.10
2022-08-12T03:14:28.616Z,14.90
2022-08-12T03:17:25.810Z,14.90
2022-08-12T03:20:10.433Z,14.80
2022-08-12T03:22:45.301Z,14.80
2022-08-12T03:25:25.267Z,14.80
2022-08-12T03:27:55.527Z,14.70
2022-08-12T03:30:32.036Z,14.60
2022-08-12T03:33:02.445Z,14.60
2022-08-12T03:39:39.814Z,14.50
2022-08-12T03:42:37.404Z,14.40
2022-08-12T03:45:28.536Z,14.50
2022-08-12T03:48:10.866Z,14.40
2022-08-12T03:50:41.741Z,14.40
2022-08-12T03:53:10.019Z,14.20
2022-08-12T03:58:07.720Z,14.10
2022-08-12T04:00:38.261Z,14.10
2022-08-12T04:03:08.781Z,14.10
2022-08-12T04:05:56.186Z,14.10
2022-08-12T04:08:26.607Z,14.10
2022-08-12T04:15:06.088Z,14.10
2022-08-12T04:17:34.541Z,14.10
2022-08-12T04:20:01.846Z,14.20
2022-08-12T04:22:30.148Z,14.10
2022-08-12T04:24:59.414Z,14.10
2022-08-12T04:27:26.838Z,14.00
2022-08-12T04:30:29.786Z,14.00
2022-08-12T04:32:44.626Z,14.00
2022-08-12T04:35:13.022Z,14.10
2022-08-12T04:38:00.408Z,14.20
2022-08-12T04:40:31.682Z,14.20
2022-08-12T04:43:00.777Z,14.20
2022-08-12T04:45:28.716Z,14.10
2022-08-12T04:47:56.804Z,14.10
2022-08-12T04:54:27.719Z,14.20
2022-08-12T04:57:04.165Z,14.20
2022-08-12T04:59:47.047Z,14.30
2022-08-12T05:02:21.036Z,14.30
2022-08-12T05:04:54.881Z,14.10
2022-08-12T05:07:22.421Z,14.20
2022-08-12T05:10:01.872Z,14.30
2022-08-12T05:12:41.365Z,14.30
2022-08-12T05:15:26.721Z,14.30
2022-08-12T05:17:55.769Z,14.30
2022-08-12T05:20:23.711Z,14.40
2022-08-12T05:22:53.090Z,14.30
2022-08-12T05:25:25.047Z,14.40
2022-08-12T05:27:58.516Z,14.10
2022-08-12T05:34:26.744Z,14.30
2022-08-12T05:36:54.399Z,14.30
2022-08-12T05:39:21.746Z,14.20
2022-08-12T05:41:49.190Z,14.30
2022-08-12T05:44:16.421Z,14.20
2022-08-12T05:46:43.828Z,14.30
2022-08-12T05:49:11.566Z,14.40
2022-08-12T05:51:41.381Z,14.40
2022-08-12T05:54:11.605Z,14.60
2022-08-12T05:56:40.411Z,14.70
2022-08-12T05:59:09.284Z,14.80
2022-08-12T06:02:08.985Z,15.00
2022-08-12T06:05:01.719Z,15.10
2022-08-12T06:07:59.559Z,15.20
2022-08-12T06:14:25.847Z,15.30
2022-08-12T06:16:55.427Z,15.40
2022-08-12T06:19:22.578Z,15.40
2022-08-12T06:21:49.851Z,15.40
2022-08-12T06:24:18.064Z,15.40
2022-08-12T06:26:45.288Z,15.40
2022-08-12T06:29:12.514Z,15.50
2022-08-12T06:32:13.990Z,15.50
2022-08-12T06:35:25.658Z,15.60
2022-08-12T06:37:28.664Z,15.70
2022-08-12T06:40:00.216Z,15.80
2022-08-12T06:42:33.085Z,15.80
2022-08-12T06:45:00.841Z,15.80
2022-08-12T06:47:28.133Z,15.90
2022-08-12T06:49:55.341Z,16.00
2022-08-12T06:52:22.535Z,15.60
2022-08-12T06:54:49.734Z,16.30
2022-08-12T06:58:06.589Z,16.30
2022-08-12T07:00:05.866Z,16.20
2022-08-12T07:02:36.912Z,16.20
2022-08-12T07:05:08.616Z,16.30
2022-08-12T07:07:38.636Z,16.40
2022-08-12T07:10:08.357Z,16.30
2022-08-12T07:12:36.598Z,16.30
2022-08-12T07:15:04.413Z,16.40
2022-08-12T07:21:59.568Z,16.40
2022-08-12T07:24:28.577Z,16.50
2022-08-12T07:30:57.481Z,16.60
2022-08-12T07:33:28.580Z,16.60
2022-08-12T07:44:19.709Z,16.70
2022-08-12T07:46:46.958Z,16.80
2022-08-12T07:53:24.156Z,16.80
2022-08-12T07:55:51.475Z,16.80
2022-08-12T07:58:18.852Z,16.90
2022-08-12T08:04:54.736Z,17.00
2022-08-12T08:13:59.289Z,17.30
2022-08-12T08:16:26.423Z,17.30
2022-08-12T08:18:53.669Z,17.30
2022-08-12T08:21:20.879Z,17.30
2022-08-12T08:23:56.429Z,17.30
2022-08-12T08:31:20.498Z,17.30
2022-08-12T08:34:01.503Z,17.50
2022-08-12T08:36:35.148Z,17.60
2022-08-12T08:39:04.257Z,17.60
2022-08-12T08:42:15.369Z,17.70
2022-08-12T08:56:48.192Z,18.00
2022-08-12T08:59:17.445Z,18.00
2022-08-12T09:01:46.204Z,18.00
2022-08-12T09:05:09.145Z,18.20
2022-08-12T09:15:22.100Z,18.40
2022-08-12T09:18:35.479Z,18.60
2022-08-12T09:28:04.012Z,18.80
2022-08-12T09:30:44.558Z,18.80
2022-08-12T09:33:19.027Z,18.70
2022-08-12T09:36:03.019Z,18.60
2022-08-12T09:38:35.275Z,18.60
2022-08-12T09:42:09.552Z,18.60
2022-08-12T09:43:53.819Z,18.50
2022-08-12T09:46:28.404Z,18.60
2022-08-12T09:48:57.228Z,18.60
2022-08-12T09:51:37.959Z,18.60
2022-08-12T09:54:33.935Z,18.60
2022-08-12T09:57:03.817Z,18.60
2022-08-12T10:00:14.634Z,18.70
2022-08-12T10:02:41.976Z,18.60
2022-08-12T10:05:17.731Z,18.70
2022-08-12T10:07:47.775Z,18.70
2022-08-12T10:10:25.104Z,18.80
2022-08-12T10:13:08.261Z,18.80
2022-08-12T10:16:02.748Z,19.00
2022-08-12T10:18:32.373Z,19.20
2022-08-12T10:20:59.609Z,19.20
2022-08-12T10:23:40.015Z,19.50
2022-08-12T10:26:36.646Z,19.60
2022-08-12T10:29:03.128Z,19.80
2022-08-12T10:31:47.190Z,20.00
2022-08-12T10:34:33.479Z,20.10
2022-08-12T10:37:22.670Z,20.20
2022-08-12T10:40:07.072Z,20.20
2022-08-12T10:42:46.097Z,20.10
2022-08-12T10:45:14.359Z,20.10
2022-08-12T10:48:19.050Z,19.90
2022-08-12T10:51:01.902Z,19.70
2022-08-12T10:53:21.346Z,19.60
2022-08-12T10:56:08.521Z,19.50
2022-08-12T10:58:35.701Z,19.30
2022-08-12T11:02:24.923Z,19.30
2022-08-12T11:08:34.449Z,18.90
2022-08-12T11:14:57.192Z,18.20
2022-08-12T11:17:43.028Z,18.10
2022-08-12T11:24:30.347Z,17.80
2022-08-12T11:27:07.397Z,17.80
2022-08-12T11:30:02.551Z,17.80
2022-08-12T11:32:24.434Z,18.00
2022-08-12T11:34:54.850Z,18.20
2022-08-12T11:41:30.879Z,19.10
2022-08-12T11:44:07.234Z,20.10
2022-08-12T11:46:50.988Z,20.90
2022-08-12T11:49:42.532Z,21.50
2022-08-12T11:52:54.893Z,22.00
2022-08-12T11:55:14.991Z,21.70
2022-08-12T11:58:39.416Z,21.30
2022-08-12T12:04:52.177Z,21.30
2022-08-12T12:08:39.093Z,21.60
2022-08-12T12:10:19.923Z,21.60
2022-08-12T12:16:50.218Z,22.20
2022-08-12T12:19:19.167Z,22.00
2022-08-12T12:21:49.338Z,21.70
2022-08-12T12:24:22.018Z,21.40
2022-08-12T12:27:00.030Z,21.10
2022-08-12T12:30:18.623Z,21.00
2022-08-12T12:32:28.835Z,20.90
2022-08-12T12:35:13.499Z,20.70
2022-08-12T12:38:12.060Z,20.40
2022-08-12T12:40:44.153Z,20.30
2022-08-12T12:43:16.094Z,20.00
2022-08-12T12:45:46.667Z,20.00
2022-08-12T12:48:20.209Z,19.90
2022-08-12T12:54:06.263Z,19.60
2022-08-12T13:17:02.784Z,21.10
2022-08-12T13:19:38.644Z,21.30
2022-08-12T13:22:10.860Z,21.20
2022-08-12T13:24:41.142Z,21.20
2022-08-12T13:27:08.318Z,20.90
2022-08-12T13:29:35.474Z,20.60
2022-08-12T13:32:18.598Z,20.30
2022-08-12T13:34:51.990Z,20.10
2022-08-12T13:37:20.688Z,19.80
2022-08-12T17:53:03.747Z,13.90
2022-08-12T17:59:47.816Z,13.50
2022-08-12T18:05:04.484Z,13.30
2022-08-12T18:12:06.299Z,13.10
2022-08-12T18:14:30.871Z,13.00
2022-08-12T18:17:02.691Z,13.00
2022-08-12T18:19:34.276Z,13.00
2022-08-12T18:22:34.512Z,12.90
2022-08-12T18:26:13.214Z,12.90
2022-08-12T18:36:13.408Z,12.60
2022-08-12T18:38:45.010Z,12.50
2022-08-12T18:45:46.985Z,12.50
2022-08-12T18:48:21.922Z,12.50
2022-08-12T18:51:06.476Z,12.30
2022-08-12T18:54:07.001Z,12.10
2022-08-12T18:56:33.325Z,12.20
2022-08-12T18:59:03.771Z,12.10
2022-08-12T19:05:53.957Z,11.90
2022-08-12T19:08:18.737Z,11.80
2022-08-12T19:10:50.371Z,11.80
2022-08-12T19:13:23.666Z,11.80
2022-08-12T19:15:57.773Z,11.90
2022-08-12T19:20:59.663Z,11.90
2022-08-12T19:23:33.878Z,11.90
2022-08-12T19:26:04.652Z,11.90
2022-08-12T19:38:02.830Z,11.80
2022-08-12T19:44:18.829Z,11.60
2022-08-12T19:46:52.641Z,11.70
2022-08-12T19:49:22.301Z,10.60
2022-08-12T19:51:51.301Z,11.80
2022-08-12T19:54:20.576Z,11.90
2022-08-12T19:56:49.575Z,12.00
2022-08-12T19:59:20.482Z,12.00
2022-08-12T20:02:02.580Z,12.00
2022-08-12T20:04:38.361Z,12.10
2022-08-12T20:07:23.220Z,12.00
2022-08-12T20:09:53.862Z,11.90
2022-08-12T20:12:31.932Z,11.70
2022-08-12T20:15:05.247Z,11.70
2022-08-12T20:17:36.210Z,11.60
2022-08-12T20:20:27.822Z,11.70
2022-08-12T20:22:55.652Z,11.60
2022-08-12T20:25:51.770Z,11.50
2022-08-12T20:28:10.138Z,11.70
2022-08-12T20:30:53.511Z,11.60
2022-08-12T20:33:50.120Z,11.50
2022-08-12T20:36:40.158Z,11.70
2022-08-12T20:38:59.770Z,11.70
2022-08-12T20:45:27.089Z,11.70
2022-08-12T20:48:12.217Z,11.60
2022-08-12T20:50:41.264Z,11.60
2022-08-12T20:53:18.611Z,11.60
2022-08-12T20:55:56.880Z,11.70
2022-08-12T20:58:24.488Z,11.60
2022-08-12T21:00:52.040Z,11.60
2022-08-12T21:03:19.453Z,11.60
2022-08-12T21:06:11.974Z,11.60
2022-08-12T21:08:35.200Z,11.50
2022-08-12T21:11:02.529Z,11.40
2022-08-12T21:18:00.208Z,11.60
2022-08-12T21:20:22.728Z,11.50
2022-08-12T21:22:50.591Z,11.50
2022-08-12T21:25:45.279Z,11.40
2022-08-12T21:28:17.088Z,11.30
2022-08-12T21:34:54.891Z,11.30
2022-08-12T21:37:27.383Z,11.20
2022-08-12T21:39:56.442Z,11.30
2022-08-12T21:42:28.088Z,11.30
2022-08-12T21:45:47.526Z,11.30
2022-08-12T21:47:46.773Z,11.30
2022-08-12T21:50:20.630Z,11.20
2022-08-12T21:52:49.275Z,11.10
2022-08-12T21:59:18.710Z,11.10
2022-08-12T22:05:45.586Z,11.20
2022-08-12T22:08:13.007Z,11.20
2022-08-12T22:10:40.327Z,11.20
2022-08-12T22:14:07.780Z,11.30
2022-08-12T22:15:57.390Z,11.10
2022-08-12T22:18:25.085Z,11.20
2022-08-12T22:20:55.447Z,11.10
2022-08-12T22:23:52.239Z,11.00
2022-08-12T22:26:15.999Z,11.00
2022-08-12T22:28:57.357Z,10.90
2022-08-12T22:31:25.197Z,10.90
2022-08-12T22:33:59.603Z,10.90
2022-08-12T22:36:29.437Z,10.90
2022-08-12T22:38:58.537Z,10.80
2022-08-12T22:41:27.190Z,10.80
2022-08-12T22:43:59.929Z,10.90
2022-08-12T22:46:30.676Z,10.80
2022-08-12T22:48:57.907Z,10.90
2022-08-12T22:51:25.140Z,10.80
2022-08-12T22:53:56.379Z,10.80
2022-08-12T22:56:30.863Z,10.90
2022-08-12T22:58:58.684Z,10.80
2022-08-12T23:01:52.292Z,10.60
2022-08-12T23:04:27.666Z,10.40
2022-08-12T23:06:58.372Z,10.80
2022-08-12T23:09:48.211Z,10.40
2022-08-12T23:12:22.627Z,10.40
2022-08-12T23:14:52.434Z,10.30
2022-08-12T23:17:35.316Z,10.30
2022-08-12T23:20:07.688Z,10.30
2022-08-12T23:23:09.185Z,10.40
2022-08-12T23:25:32.710Z,10.30
2022-08-12T23:28:29.209Z,10.30
2022-08-12T23:30:57.555Z,10.20
2022-08-12T23:34:00.754Z,10.20
2022-08-12T23:36:12.855Z,10.10
2022-08-12T23:38:45.370Z,10.10
